createdAt,value
2019-05-02T18:01:52.710Z,58.00
2019-05-02T18:04:22.195Z,58.80
2019-05-02T18:06:55.000Z,59.80
2019-05-02T18:09:26.391Z,59.60
2019-05-02T18:11:53.855Z,60.20
2019-05-02T18:14:24.090Z,59.20
2019-05-02T18:16:55.609Z,58.80
2019-05-02T18:19:24.862Z,59.00
2019-05-02T18:21:58.170Z,59.00
2019-05-02T18:24:25.446Z,58.90
2019-05-02T18:26:54.922Z,59.30
2019-05-02T18:29:24.478Z,59.40
2019-05-02T18:31:53.951Z,59.50
2019-05-02T18:34:25.131Z,59.80
2019-05-02T18:36:57.551Z,59.70
2019-05-02T18:39:25.638Z,59.80
2019-05-02T18:41:55.202Z,59.90
2019-05-02T18:44:24.874Z,60.70
2019-05-02T18:46:54.329Z,60.90
2019-05-02T18:49:23.817Z,60.80
2019-05-02T18:51:57.250Z,60.80
2019-05-02T18:54:24.492Z,61.00
2019-05-02T18:56:55.334Z,64.00
2019-05-02T18:59:27.121Z,65.10
2019-05-02T19:01:59.374Z,64.60
2019-05-02T19:04:34.864Z,64.60
2019-05-02T19:06:59.995Z,64.60
2019-05-02T19:09:30.548Z,65.20
2019-05-02T19:12:05.829Z,65.10
2019-05-02T19:14:32.723Z,65.70
2019-05-02T19:17:03.567Z,65.90
2019-05-02T19:19:36.841Z,66.10
2019-05-02T19:22:07.474Z,66.40
2019-05-02T19:24:36.679Z,67.40
2019-05-02T19:27:06.870Z,67.50
2019-05-02T19:29:36.348Z,67.30
2019-05-02T19:32:06.373Z,67.50
2019-05-02T19:34:35.930Z,68.00
2019-05-02T19:37:05.399Z,68.50
2019-05-02T19:39:38.985Z,69.00
2019-05-02T19:42:07.206Z,69.20
2019-05-02T19:44:36.657Z,69.40
2019-05-02T19:47:08.247Z,69.70
2019-05-02T19:49:37.503Z,70.30
2019-05-02T19:52:06.994Z,70.50
2019-05-02T19:54:39.291Z,70.10
2019-05-02T19:57:07.621Z,70.40
2019-05-02T19:59:37.080Z,71.60
2019-05-02T20:02:07.629Z,72.20
2019-05-02T20:04:37.686Z,72.70
2019-05-02T20:07:08.207Z,72.90
2019-05-02T20:09:38.097Z,74.00
2019-05-02T20:12:12.968Z,75.60
2019-05-02T20:14:43.694Z,76.30
2019-05-02T20:17:15.022Z,76.00
2019-05-02T20:19:46.548Z,76.80
2019-05-02T20:22:16.405Z,77.10
2019-05-02T20:25:06.341Z,77.50
2019-05-02T20:27:35.827Z,77.50
2019-05-02T20:30:08.826Z,76.80
2019-05-02T20:32:38.379Z,76.90
2019-05-02T20:35:08.183Z,76.90
2019-05-02T20:37:37.737Z,77.30
2019-05-02T20:40:08.903Z,77.10
2019-05-02T20:42:38.386Z,77.10
2019-05-02T20:45:08.281Z,77.40
2019-05-02T20:47:37.779Z,77.50
2019-05-02T20:50:07.416Z,77.60
2019-05-02T20:52:36.956Z,77.40
2019-05-02T20:55:07.263Z,77.50
2019-05-02T20:57:36.993Z,78.10
2019-05-02T21:00:08.966Z,78.20
2019-05-02T21:02:39.346Z,77.90
2019-05-02T21:05:09.605Z,77.90
2019-05-02T21:07:42.409Z,78.60
2019-05-02T21:10:13.834Z,78.50
2019-05-02T21:12:43.319Z,78.20
2019-05-02T21:15:12.913Z,78.30
2019-05-02T21:17:42.540Z,78.50
2019-05-02T21:20:12.490Z,78.50
2019-05-02T21:22:42.300Z,78.60
2019-05-02T21:25:13.402Z,78.70
2019-05-02T21:27:42.891Z,78.80
2019-05-02T21:30:12.886Z,78.60
2019-05-02T21:32:43.437Z,78.30
2019-05-02T21:35:12.907Z,78.00
2019-05-02T21:37:42.560Z,78.00
2019-05-02T21:40:12.684Z,77.70
2019-05-02T21:42:42.626Z,77.30
2019-05-02T21:45:13.188Z,77.80
2019-05-02T21:47:43.878Z,78.00
2019-05-02T21:50:18.751Z,78.20
2019-05-02T21:52:55.945Z,78.00
2019-05-02T21:55:27.039Z,75.80
2019-05-02T21:57:56.509Z,75.00
2019-05-02T22:00:47.062Z,74.20
2019-05-02T22:03:16.990Z,73.90
2019-05-02T22:05:46.442Z,75.20
2019-05-02T22:08:15.989Z,77.00
2019-05-02T22:10:45.709Z,76.20
2019-05-02T22:13:15.219Z,76.20
2019-05-02T22:15:44.679Z,77.20
2019-05-02T22:18:14.335Z,77.60
2019-05-02T22:20:43.786Z,77.60
2019-05-02T22:23:13.342Z,77.80
2019-05-02T22:25:42.803Z,77.70
2019-05-02T22:28:12.650Z,77.50
2019-05-02T22:30:42.905Z,76.80
2019-05-02T22:33:12.466Z,76.80
2019-05-02T22:35:43.416Z,76.80
2019-05-02T22:38:14.625Z,77.50
2019-05-02T22:40:45.730Z,77.30
2019-05-02T22:43:15.187Z,77.40
2019-05-02T22:45:44.645Z,77.10
2019-05-02T22:48:14.321Z,77.10
2019-05-02T22:50:43.837Z,76.90
2019-05-02T22:53:14.009Z,76.70
2019-05-02T22:55:44.384Z,76.70
2019-05-02T22:58:13.841Z,77.10
2019-05-02T23:00:43.399Z,77.10
2019-05-02T23:03:12.846Z,77.20
2019-05-02T23:05:42.310Z,77.30
2019-05-02T23:08:12.578Z,77.20
2019-05-02T23:10:42.147Z,77.10
2019-05-02T23:13:12.978Z,77.40
2019-05-02T23:15:43.068Z,76.90
2019-05-02T23:18:12.517Z,76.90
2019-05-02T23:20:42.244Z,76.80
2019-05-02T23:23:12.538Z,76.60
2019-05-02T23:25:53.611Z,76.60
2019-05-02T23:28:36.923Z,76.70
2019-05-02T23:31:06.407Z,76.60
2019-05-02T23:33:53.859Z,76.80
2019-05-02T23:36:23.347Z,77.00
2019-05-02T23:38:52.815Z,77.30
2019-05-02T23:41:22.601Z,77.20
2019-05-02T23:43:52.515Z,77.30
2019-05-02T23:46:23.358Z,77.30
2019-05-02T23:48:52.823Z,77.80
2019-05-02T23:51:22.595Z,77.60
2019-05-02T23:53:52.744Z,77.50
2019-05-02T23:56:22.525Z,77.90
2019-05-02T23:58:52.106Z,77.90
